Hickory Hill, Arkansas
Current Conditions -  °F | °C
As of 1:53 PM on Friday 19 Dec 2014 (Local Time) from KRUE Reporting Station
Overcast Overcast  
Wind Chill: 44°   Ceiling: 1700
Heat Index: 44°   Visibility: 10mi
Dew Point: 37°   Wind: 3mph
Humidity: 76%   Direction: 70°ENE
Pressure: 30.19"   Gusts: NA
Location:  35.227°N, 92.6879°W
Report Text: KRUE 191953Z AUTO 07003KT 10SM OVC017 07/03 A3019 RMK AO2 SLP221 T00670028
Loading
Personal Weather Stations






























Interactive Weather Map New forecast layout! Learn more

10-Day Weather Forecast

Advertisements
Track Severe Weather on mobile